Главная страница
METAR-TAF:

METAR-TAF

Аэропорты :

Фунафути, Тувалу

широта: 08-31S, долгота: 179-13E, высота над уровнем моря: 1 м

Текущие метеонаблюдения

Эта сводка был подготовлена 47 минут назад, в 23:00 UTC
Ветер 2 Узел переменных направлений
Температура 31°C
Влажность 71%
Давление 1010 hPa
Видимость 10 км и более
небольшая облачность на высоте 2000 фута
Рассеянная облачность на высоте 31000 фута

METAR: NGFU 212300Z VRB02KT 9999 FEW020 BKN310 31/25 Q1010

Время: 11:47 (23:47 UTC)

Прогноз

Эта сводка был подготовлена 38 минут назад, в 23:09 UTC
Прогноз действительный с 22-го 00 UTC до 22-го 24 UTC
Ветер 8 Узел от восточно-северо-восточный
Видимость 10 км и более
Отдельные облака на высоте 1800 фута
Отдельные облака на высоте 5000 фута
Вероятность 30% :
временами
С 22-го 18 UTC до 22-го 24 UTC
Видимость: 5000 м
небольшая облачность на высоте 1700 фута, Кучево-дождевые.
гроза, дождь

TAF: NGFU 212309Z 2200/2224 07008KT 9999 SCT018 SCT050 PROB30 TEMPO 2218/2224 5000 TSRA FEW017CB

Метеонаблюдения и прогнозы для более 4000 аэропортов (сводки METAR и TAF).

Имеющиеся станции представлены на карте желтыми и красными точками.

Чтобы увидеть название станции, наведите на нее мышь.

Затем щелкните, чтобы увидеть метеонаблюдения и метеопрогнозы.

Управление картой: чтобы увеличить масштаб, щелкните зеленые кнопки с черным крестиком; чтобы уменьшить масштаб, щелкните зеленую кнопку с тире; для просмотра соседних карт щелкайте зеленые стрелки.


METAR-TAF: